createdAt,value
2022-08-11T00:02:29.419Z,63.14
2022-08-11T00:05:02.266Z,63.39
2022-08-11T00:07:30.939Z,63.48
2022-08-11T00:10:01.311Z,63.93
2022-08-11T00:12:29.736Z,64.39
2022-08-11T00:14:59.836Z,63.95
2022-08-11T00:17:29.368Z,64.18
2022-08-11T00:20:12.300Z,64.31
2022-08-11T00:22:45.895Z,64.57
2022-08-11T00:25:17.754Z,65.54
2022-08-11T00:27:47.015Z,66.31
2022-08-11T00:30:16.227Z,66.69
2022-08-11T00:32:47.124Z,67.06
2022-08-11T00:35:54.133Z,67.55
2022-08-11T00:38:08.266Z,68.09
2022-08-11T00:40:52.136Z,68.16
2022-08-11T00:43:24.766Z,67.61
2022-08-11T00:46:17.193Z,67.86
2022-08-11T00:49:00.688Z,68.04
2022-08-11T00:51:56.773Z,68.18
2022-08-11T00:54:59.993Z,68.01
2022-08-11T00:58:06.100Z,68.40
2022-08-11T01:00:45.091Z,69.40
2022-08-11T01:03:21.569Z,70.44
2022-08-11T01:06:18.320Z,70.63
2022-08-11T01:09:30.083Z,70.85
2022-08-11T01:12:32.583Z,71.16
2022-08-11T01:15:33.865Z,71.41
2022-08-11T01:18:46.158Z,71.65
2022-08-11T01:22:01.257Z,71.99
2022-08-11T01:25:03.595Z,72.27
2022-08-11T01:28:00.806Z,72.47
2022-08-11T01:31:03.508Z,72.63
2022-08-11T01:34:17.208Z,73.01
2022-08-11T01:37:13.455Z,73.18
2022-08-11T01:40:20.585Z,73.05
2022-08-11T01:43:45.994Z,73.03
2022-08-11T01:46:22.343Z,73.53
2022-08-11T01:48:58.026Z,73.92
2022-08-11T01:51:43.222Z,73.93
2022-08-11T01:54:25.627Z,73.66
2022-08-11T01:57:04.239Z,74.38
2022-08-11T01:59:38.408Z,74.24
2022-08-11T02:02:52.003Z,74.32
2022-08-11T02:05:30.127Z,74.75
2022-08-11T02:08:05.849Z,75.13
2022-08-11T02:11:02.284Z,75.67
2022-08-11T02:13:42.518Z,76.05
2022-08-11T02:16:22.416Z,76.60
2022-08-11T02:19:13.661Z,76.70
2022-08-11T02:22:08.361Z,76.46
2022-08-11T02:24:45.720Z,76.36
2022-08-11T02:27:23.118Z,75.53
2022-08-11T02:30:04.887Z,75.29
2022-08-11T02:32:57.339Z,75.86
2022-08-11T02:35:28.352Z,76.38
2022-08-11T02:38:09.640Z,77.43
2022-08-11T02:40:53.349Z,77.80
2022-08-11T02:43:48.040Z,77.88
2022-08-11T02:46:27.827Z,77.71
2022-08-11T02:49:19.251Z,77.52
2022-08-11T02:52:04.324Z,77.58
2022-08-11T02:54:39.009Z,77.69
2022-08-11T02:57:14.093Z,78.18
2022-08-11T02:59:51.404Z,78.76
2022-08-11T03:02:31.491Z,78.82
2022-08-11T03:05:11.864Z,79.29
2022-08-11T03:08:01.910Z,79.04
2022-08-11T03:10:35.780Z,78.67
2022-08-11T03:13:33.509Z,78.26
2022-08-11T03:16:32.260Z,78.23
2022-08-11T03:19:09.438Z,78.39
2022-08-11T03:22:03.083Z,78.20
2022-08-11T03:24:43.383Z,78.33
2022-08-11T03:27:24.960Z,78.42
2022-08-11T03:30:07.191Z,78.93
2022-08-11T03:32:43.564Z,79.32
2022-08-11T03:35:21.299Z,79.55
2022-08-11T03:37:57.617Z,79.97
2022-08-11T03:40:59.546Z,79.34
2022-08-11T03:43:57.986Z,79.29
2022-08-11T03:46:39.576Z,79.43
2022-08-11T03:49:24.238Z,79.66
2022-08-11T03:51:57.475Z,79.18
2022-08-11T03:54:34.063Z,79.58
2022-08-11T03:57:51.111Z,80.01
2022-08-11T04:00:41.310Z,79.99
2022-08-11T04:03:54.229Z,80.24
2022-08-11T04:06:47.434Z,80.08
2022-08-11T04:09:59.233Z,80.44
2022-08-11T04:13:10.658Z,80.21
2022-08-11T04:16:12.555Z,80.49
2022-08-11T04:19:24.092Z,80.56
2022-08-11T04:22:32.588Z,80.46
2022-08-11T04:25:17.682Z,80.58
2022-08-11T04:28:18.899Z,80.65
2022-08-11T04:31:10.305Z,80.85
2022-08-11T04:34:08.115Z,81.28
2022-08-11T04:37:04.651Z,81.35
2022-08-11T04:39:50.345Z,81.48
2022-08-11T04:43:23.331Z,82.02
2022-08-11T04:46:09.701Z,82.50
2022-08-11T04:49:25.562Z,82.28
2022-08-11T04:52:47.342Z,82.56
2022-08-11T04:56:01.253Z,83.13
2022-08-11T04:59:06.328Z,82.65
2022-08-11T05:01:47.181Z,82.41
2022-08-11T05:04:47.015Z,82.43
2022-08-11T05:07:59.726Z,82.98
2022-08-11T05:10:49.312Z,83.38
2022-08-11T05:13:49.056Z,83.82
2022-08-11T05:16:38.438Z,84.62
2022-08-11T05:19:23.930Z,84.82
2022-08-11T05:22:13.075Z,85.33
2022-08-11T05:25:03.046Z,85.83
2022-08-11T05:27:54.869Z,86.02
2022-08-11T05:30:46.715Z,85.92
2022-08-11T05:33:39.721Z,85.76
2022-08-11T05:36:13.577Z,85.51
2022-08-11T05:39:08.533Z,85.47
2022-08-11T05:41:54.130Z,85.17
2022-08-11T05:44:41.241Z,85.22
2022-08-11T05:47:27.535Z,84.70
2022-08-11T05:50:13.516Z,84.59
2022-08-11T05:53:04.782Z,84.47
2022-08-11T05:56:02.268Z,83.95
2022-08-11T05:58:41.369Z,83.51
2022-08-11T06:01:12.868Z,83.08
2022-08-11T06:03:59.635Z,82.47
2022-08-11T06:06:29.225Z,81.75
2022-08-11T06:08:58.729Z,81.72
2022-08-11T06:11:43.578Z,81.32
2022-08-11T06:14:13.379Z,81.08
2022-08-11T06:16:44.239Z,80.84
2022-08-11T06:19:13.059Z,80.62
2022-08-11T06:21:46.394Z,80.72
2022-08-11T06:24:15.014Z,80.20
2022-08-11T06:27:10.727Z,79.27
2022-08-11T06:29:47.627Z,78.22
2022-08-11T06:32:18.762Z,74.69
2022-08-11T06:35:10.997Z,74.05
2022-08-11T06:37:58.701Z,72.25
2022-08-11T06:40:36.534Z,72.24
2022-08-11T06:43:12.711Z,70.35
2022-08-11T06:45:47.928Z,68.71
2022-08-11T06:48:20.082Z,67.31
2022-08-11T06:51:09.997Z,67.37
2022-08-11T06:53:43.486Z,67.81
2022-08-11T06:57:12.156Z,66.39
2022-08-11T06:59:58.352Z,65.15
2022-08-11T07:02:33.572Z,63.42
2022-08-11T07:05:08.145Z,60.51
2022-08-11T07:08:38.889Z,58.62
2022-08-11T07:12:02.484Z,57.56
2022-08-11T07:14:49.704Z,61.20
2022-08-11T07:17:21.608Z,58.26
2022-08-11T07:20:13.633Z,57.27
2022-08-11T07:23:04.759Z,57.65
2022-08-11T07:25:52.963Z,55.77
2022-08-11T07:28:43.555Z,56.39
2022-08-11T07:31:14.848Z,55.74
2022-08-11T07:34:07.786Z,54.39
2022-08-11T07:36:39.417Z,54.25
2022-08-11T07:39:11.920Z,55.15
2022-08-11T07:41:40.078Z,53.26
2022-08-11T07:44:11.643Z,51.93
2022-08-11T07:46:59.743Z,51.36
2022-08-11T07:49:48.064Z,49.49
2022-08-11T07:52:27.909Z,49.64
2022-08-11T07:54:59.827Z,48.69
2022-08-11T07:58:15.178Z,47.42
2022-08-11T08:00:56.488Z,48.11
2022-08-11T08:03:53.998Z,49.49
2022-08-11T08:06:40.194Z,49.68
2022-08-11T08:09:27.120Z,45.73
2022-08-11T08:12:14.426Z,45.37
2022-08-11T08:15:01.137Z,46.58
2022-08-11T08:18:20.903Z,45.82
2022-08-11T08:20:38.338Z,43.71
2022-08-11T08:23:07.431Z,43.81
2022-08-11T08:25:36.576Z,44.52
2022-08-11T08:28:08.102Z,44.23
2022-08-11T08:30:51.203Z,44.33
2022-08-11T08:33:22.411Z,44.64
2022-08-11T08:36:11.253Z,44.46
2022-08-11T08:38:41.250Z,44.86
2022-08-11T08:41:13.399Z,45.35
2022-08-11T08:43:49.605Z,44.46
2022-08-11T08:46:21.991Z,45.04
2022-08-11T08:48:53.148Z,44.82
2022-08-11T08:52:00.949Z,44.16
2022-08-11T08:54:31.476Z,42.13
2022-08-11T08:57:02.380Z,40.33
2022-08-11T08:59:47.691Z,40.83
2022-08-11T09:02:19.867Z,41.90
2022-08-11T09:05:03.777Z,41.79
2022-08-11T09:07:38.788Z,42.46
2022-08-11T09:10:10.837Z,41.30
2022-08-11T09:12:41.483Z,40.64
2022-08-11T09:15:12.690Z,40.60
2022-08-11T09:17:43.271Z,39.94
2022-08-11T09:20:14.439Z,40.84
2022-08-11T09:26:11.053Z,40.16
2022-08-11T09:28:42.598Z,39.89
2022-08-11T09:31:13.564Z,40.56
2022-08-11T09:33:43.741Z,39.47
2022-08-11T09:36:31.219Z,39.22
2022-08-11T09:39:18.521Z,39.11
2022-08-11T09:42:01.156Z,38.16
2022-08-11T09:44:49.712Z,36.84
2022-08-11T09:47:25.544Z,36.56
2022-08-11T09:50:00.188Z,37.02
2022-08-11T09:52:30.543Z,37.94
2022-08-11T09:54:59.672Z,37.44
2022-08-11T09:57:44.823Z,36.71
2022-08-11T10:00:14.992Z,36.23
2022-08-11T10:02:46.991Z,35.64
2022-08-11T10:05:36.210Z,35.84
2022-08-11T10:08:05.622Z,35.11
2022-08-11T10:10:37.677Z,34.03
2022-08-11T10:14:31.820Z,35.81
2022-08-11T10:16:14.418Z,35.84
2022-08-11T10:18:52.523Z,36.05
2022-08-11T10:21:28.197Z,35.78
2022-08-11T10:24:15.194Z,33.87
2022-08-11T10:27:00.058Z,33.90
2022-08-11T10:29:49.839Z,34.01
2022-08-11T10:32:49.297Z,33.45
2022-08-11T10:35:29.455Z,32.23
2022-08-11T10:38:08.253Z,33.11
2022-08-11T10:40:39.884Z,32.56
2022-08-11T10:43:13.277Z,33.45
2022-08-11T10:46:03.044Z,34.03
2022-08-11T10:48:37.692Z,32.37
2022-08-11T10:51:14.591Z,32.89
2022-08-11T10:54:02.954Z,31.37
2022-08-11T10:56:50.774Z,32.26
2022-08-11T10:59:18.816Z,32.90
2022-08-11T11:01:47.173Z,33.23
2022-08-11T11:04:17.127Z,32.41
2022-08-11T11:07:00.294Z,31.72
2022-08-11T11:09:32.539Z,31.31
2022-08-11T11:12:22.165Z,32.11
2022-08-11T11:15:16.117Z,31.32
2022-08-11T11:18:01.480Z,31.38
2022-08-11T11:20:36.195Z,31.72
2022-08-11T11:23:17.695Z,31.81
2022-08-11T11:26:11.266Z,32.92
2022-08-11T11:29:04.029Z,32.47
2022-08-11T11:31:45.592Z,32.87
2022-08-11T11:34:16.542Z,32.85
2022-08-11T11:36:50.451Z,32.61
2022-08-11T11:39:22.260Z,31.39
2022-08-11T11:41:52.750Z,30.36
2022-08-11T11:44:22.728Z,30.39
2022-08-11T11:46:51.386Z,30.62
2022-08-11T11:51:56.776Z,31.08
2022-08-11T11:54:27.855Z,29.89
2022-08-11T11:56:57.977Z,30.34
2022-08-11T11:59:45.947Z,30.96
2022-08-11T12:02:16.847Z,32.21
2022-08-11T12:04:48.721Z,31.29
2022-08-11T12:07:35.184Z,30.35
2022-08-11T12:10:05.056Z,30.20
2022-08-11T12:12:51.049Z,30.06
2022-08-11T12:16:04.197Z,28.96
2022-08-11T12:18:08.986Z,30.04
2022-08-11T12:20:37.800Z,29.24
2022-08-11T12:23:23.948Z,29.96
2022-08-11T12:26:26.393Z,29.87
2022-08-11T12:28:57.937Z,29.60
2022-08-11T12:31:26.120Z,29.59
2022-08-11T12:33:55.966Z,30.37
2022-08-11T12:36:24.275Z,30.40
2022-08-11T12:38:53.923Z,30.46
2022-08-11T12:41:41.639Z,29.92
2022-08-11T12:44:29.358Z,29.80
2022-08-11T12:47:00.675Z,29.54
2022-08-11T12:49:49.325Z,29.73
2022-08-11T12:52:23.591Z,29.21
2022-08-11T12:54:58.916Z,30.49
2022-08-11T12:57:52.337Z,30.59
2022-08-11T13:00:39.241Z,30.46
2022-08-11T13:03:27.289Z,29.67
2022-08-11T13:05:57.369Z,30.09
2022-08-11T13:08:26.931Z,30.71
2022-08-11T13:11:14.406Z,31.13
2022-08-11T13:13:54.340Z,30.23
2022-08-11T13:16:24.630Z,30.30
2022-08-11T13:18:53.254Z,30.04
2022-08-11T13:21:22.859Z,29.64
2022-08-11T13:24:01.819Z,28.99
2022-08-11T13:26:46.784Z,29.52
2022-08-11T13:29:20.356Z,29.43
2022-08-11T13:31:48.090Z,29.22
2022-08-11T13:34:17.201Z,30.11
2022-08-11T13:36:46.272Z,29.45
2022-08-11T13:39:15.049Z,29.12
2022-08-11T13:41:46.716Z,29.35
2022-08-11T13:44:23.311Z,29.02
2022-08-11T13:46:55.208Z,30.00
2022-08-11T13:49:24.325Z,29.62
2022-08-11T13:51:53.927Z,28.85
2022-08-11T13:54:24.108Z,28.80
2022-08-11T13:56:56.693Z,29.37
2022-08-11T13:59:29.812Z,28.84
2022-08-11T14:02:27.953Z,28.46
2022-08-11T14:04:55.275Z,28.23
2022-08-11T14:07:25.171Z,28.31
2022-08-11T14:09:58.436Z,28.18
2022-08-11T14:12:46.580Z,27.97
2022-08-11T14:15:19.881Z,27.34
2022-08-11T14:17:53.661Z,28.15
2022-08-11T14:20:39.423Z,26.67
2022-08-11T14:23:11.372Z,27.68
2022-08-11T14:26:02.858Z,27.70
2022-08-11T14:28:37.434Z,27.51
2022-08-11T14:31:09.263Z,27.24
2022-08-11T14:34:00.006Z,26.73
2022-08-11T14:36:31.007Z,27.59
2022-08-11T14:38:59.356Z,26.69
2022-08-11T14:42:11.894Z,27.36
2022-08-11T14:44:54.161Z,27.38
2022-08-11T14:47:25.399Z,26.88
2022-08-11T14:50:11.567Z,26.61
2022-08-11T14:52:46.506Z,26.58
2022-08-11T14:55:33.141Z,27.27
2022-08-11T14:58:02.081Z,27.14
2022-08-11T15:00:30.832Z,26.78
2022-08-11T15:03:11.015Z,24.83
2022-08-11T15:05:56.453Z,25.15
2022-08-11T15:08:46.761Z,25.03
2022-08-11T15:11:30.163Z,25.26
2022-08-11T15:13:59.737Z,25.61
2022-08-11T15:16:46.509Z,25.89
2022-08-11T15:19:15.526Z,25.73
2022-08-11T15:22:01.948Z,25.69
2022-08-11T15:24:31.002Z,25.76
2022-08-11T15:27:19.209Z,26.19
2022-08-11T15:30:06.367Z,25.92
2022-08-11T15:32:53.815Z,26.69
2022-08-11T15:35:53.976Z,26.36
2022-08-11T15:38:24.058Z,26.34
2022-08-11T15:41:13.786Z,25.88
2022-08-11T15:44:02.740Z,26.24
2022-08-11T15:46:32.962Z,26.38
2022-08-11T15:49:03.781Z,27.09
2022-08-11T15:51:35.589Z,26.02
2022-08-11T15:54:09.589Z,25.88
2022-08-11T15:56:41.739Z,26.78
2022-08-11T15:59:42.197Z,27.69
2022-08-11T16:02:32.144Z,26.24
2022-08-11T16:05:02.726Z,26.39
2022-08-11T16:07:40.398Z,27.21
2022-08-11T16:10:18.892Z,27.48
2022-08-11T16:13:20.155Z,28.05
2022-08-11T16:16:09.579Z,28.14
2022-08-11T16:18:42.637Z,28.07
2022-08-11T16:21:34.010Z,28.09
2022-08-11T16:24:04.509Z,28.59
2022-08-11T16:27:08.157Z,28.67
2022-08-11T16:29:26.080Z,28.53
2022-08-11T16:32:13.657Z,28.60
2022-08-11T16:35:00.735Z,28.84
2022-08-11T16:37:47.266Z,29.42
2022-08-11T16:40:15.998Z,29.84
2022-08-11T16:43:10.718Z,29.64
2022-08-11T16:45:57.982Z,29.76
2022-08-11T16:48:35.178Z,29.41
2022-08-11T16:51:06.265Z,29.77
2022-08-11T16:53:54.928Z,29.84
2022-08-11T16:56:26.337Z,29.96
2022-08-11T16:59:15.307Z,30.16
2022-08-11T17:01:46.895Z,30.29
2022-08-11T17:04:39.290Z,30.22
2022-08-11T17:07:41.479Z,30.41
2022-08-11T17:10:53.688Z,29.95
2022-08-11T17:13:29.077Z,30.13
2022-08-11T17:16:08.981Z,30.43
2022-08-11T17:18:44.055Z,30.49
2022-08-11T17:21:26.201Z,30.16
2022-08-11T17:23:56.077Z,30.26
2022-08-11T17:26:52.690Z,30.00
2022-08-11T17:29:24.433Z,30.63
2022-08-11T17:32:13.050Z,30.92
2022-08-11T17:35:01.107Z,30.80
2022-08-11T17:37:31.089Z,30.47
2022-08-11T17:40:00.981Z,30.90
2022-08-11T17:42:48.346Z,31.04
2022-08-11T17:45:36.075Z,31.48
2022-08-11T17:48:24.472Z,31.28
2022-08-11T17:50:54.227Z,31.49
2022-08-11T17:53:40.446Z,31.63
2022-08-11T17:56:49.142Z,32.21
2022-08-11T17:59:35.924Z,31.69
2022-08-11T18:02:20.556Z,31.67
2022-08-11T18:04:51.908Z,31.77
2022-08-11T18:07:38.744Z,31.49
2022-08-11T18:10:26.083Z,31.72
2022-08-11T18:13:13.790Z,32.11
2022-08-11T18:16:01.188Z,32.35
2022-08-11T18:18:47.316Z,32.48
2022-08-11T18:21:37.602Z,33.18
2022-08-11T18:24:28.321Z,33.08
2022-08-11T18:27:17.151Z,33.10
2022-08-11T18:30:10.392Z,33.40
2022-08-11T18:33:25.007Z,33.71
2022-08-11T18:36:08.583Z,34.13
2022-08-11T18:38:56.767Z,34.17
2022-08-11T18:41:45.728Z,34.38
2022-08-11T18:44:34.308Z,34.78
2022-08-11T18:47:28.900Z,34.47
2022-08-11T18:50:18.122Z,34.88
2022-08-11T18:53:12.220Z,35.06
2022-08-11T18:56:01.611Z,35.48
2022-08-11T18:58:50.522Z,35.76
2022-08-11T19:01:37.339Z,36.07
2022-08-11T19:04:25.238Z,36.48
2022-08-11T19:07:20.577Z,36.55
2022-08-11T19:10:07.427Z,37.15
2022-08-11T19:12:58.862Z,37.78
2022-08-11T19:15:44.556Z,37.59
2022-08-11T19:18:33.243Z,37.69
2022-08-11T19:21:19.619Z,37.94
2022-08-11T19:24:10.568Z,38.53
2022-08-11T19:26:57.418Z,38.38
2022-08-11T19:30:07.644Z,38.81
2022-08-11T19:32:51.607Z,39.45
2022-08-11T19:35:38.543Z,39.73
2022-08-11T19:38:24.198Z,40.28
2022-08-11T19:41:11.955Z,40.50
2022-08-11T19:43:59.194Z,41.06
2022-08-11T19:46:46.098Z,41.49
2022-08-11T19:49:32.815Z,41.60
2022-08-11T19:52:18.937Z,41.87
2022-08-11T19:55:05.678Z,42.12
2022-08-11T19:57:53.576Z,42.27
2022-08-11T20:00:40.775Z,42.68
2022-08-11T20:03:28.983Z,43.17
2022-08-11T20:06:16.436Z,43.52
2022-08-11T20:09:04.271Z,43.77
2022-08-11T20:11:55.135Z,44.14
2022-08-11T20:14:42.624Z,44.48
2022-08-11T20:17:32.489Z,44.55
2022-08-11T20:20:23.866Z,44.60
2022-08-11T20:23:11.313Z,44.78
2022-08-11T20:26:08.519Z,45.21
2022-08-11T20:29:03.269Z,45.48
2022-08-11T20:31:50.343Z,46.02
2022-08-11T20:34:36.761Z,46.23
2022-08-11T20:37:24.794Z,46.34
2022-08-11T20:40:11.984Z,46.75
2022-08-11T20:42:59.313Z,46.96
2022-08-11T20:45:56.706Z,46.76
2022-08-11T20:48:45.728Z,46.95
2022-08-11T20:51:33.812Z,47.51
2022-08-11T20:54:38.289Z,47.54
2022-08-11T20:57:54.388Z,48.22
2022-08-11T21:00:39.309Z,48.26
2022-08-11T21:03:45.342Z,48.58
2022-08-11T21:06:43.961Z,48.46
2022-08-11T21:09:44.238Z,48.83
2022-08-11T21:12:41.118Z,49.30
2022-08-11T21:15:47.130Z,49.77
2022-08-11T21:18:35.964Z,50.53
2022-08-11T21:21:25.756Z,51.00
2022-08-11T21:24:12.644Z,51.62
2022-08-11T21:27:05.184Z,52.13
2022-08-11T21:29:52.949Z,52.62
2022-08-11T21:32:39.071Z,53.28
2022-08-11T21:35:26.098Z,53.70
2022-08-11T21:38:11.491Z,54.23
2022-08-11T21:41:00.160Z,54.23
2022-08-11T21:43:50.099Z,53.94
2022-08-11T21:46:39.484Z,54.31
2022-08-11T21:49:25.947Z,54.90
2022-08-11T21:52:11.267Z,54.61
2022-08-11T21:54:58.161Z,54.94
2022-08-11T21:57:48.131Z,55.11
2022-08-11T22:00:36.853Z,55.16
2022-08-11T22:03:23.430Z,55.36
2022-08-11T22:06:10.092Z,55.32
2022-08-11T22:08:55.484Z,55.80
2022-08-11T22:11:40.881Z,56.52
2022-08-11T22:14:26.188Z,57.01
2022-08-11T22:17:12.853Z,57.39
2022-08-11T22:20:00.511Z,57.07
2022-08-11T22:22:52.786Z,56.66
2022-08-11T22:25:39.168Z,56.71
2022-08-11T22:28:36.531Z,57.79
2022-08-11T22:31:23.878Z,58.06
2022-08-11T22:34:10.429Z,57.87
2022-08-11T22:36:56.986Z,57.81
2022-08-11T22:39:45.067Z,58.01
2022-08-11T22:42:45.796Z,57.49
2022-08-11T22:45:31.635Z,57.60
2022-08-11T22:48:19.297Z,57.60
2022-08-11T22:51:06.971Z,57.63
2022-08-11T22:53:58.217Z,58.10
2022-08-11T22:56:45.043Z,58.31
2022-08-11T22:59:31.636Z,58.24
2022-08-11T23:02:16.997Z,58.74
2022-08-11T23:05:03.217Z,58.59
2022-08-11T23:07:52.095Z,58.65
2022-08-11T23:10:38.721Z,58.38
2022-08-11T23:13:24.664Z,58.67
2022-08-11T23:16:11.136Z,59.14
2022-08-11T23:18:58.390Z,59.54
2022-08-11T23:21:45.746Z,59.48
2022-08-11T23:24:33.257Z,59.20
2022-08-11T23:27:20.873Z,59.03
2022-08-11T23:30:08.939Z,58.50
2022-08-11T23:32:55.843Z,58.37
2022-08-11T23:35:53.657Z,58.80
2022-08-11T23:38:40.598Z,60.06
2022-08-11T23:41:27.028Z,60.38
2022-08-11T23:44:13.861Z,60.24
2022-08-11T23:47:00.231Z,60.43
2022-08-11T23:49:46.832Z,61.10
2022-08-11T23:52:33.949Z,61.65
2022-08-11T23:55:19.008Z,61.89
2022-08-11T23:58:05.854Z,61.49
